Airfield :
LOGIN :

Register | Disclaimer

   EN    FR    IT 

 










Legend :    VFR   Marginal VFR   IFR   Intensive IFR   Very Intensive IFR
Visi :
Ceiling :
>= 8 km
>= 3000ft
5 to 8 km
1000 to 3000 ft
1500m to 5 km
500 to 1000 ft
800 to 1500m
200 to 500 ft
< 800m
< 200 ft
Symbols :   Thunderstorms  Fog  Heavy snow  Heavy precipitations  Wind > 20 kt
SIGMETs :     Misc.  Thunderstorms  Icing  Turbulence  Mountain Waves  Volcanic Ashes






- Airport Elevation : 1299 ft


EDTY - Adolf Würth

CURRENT METAR :
  • 042320Z AUTO 31004KT 270V330 6000 // OVC098/// M02/M03 Q0990

EXPIRED METARs :
  • 042250Z AUTO VRB02KT 6000 // BKN100/// OVC130/// M02/M03 Q0990
  • 042220Z AUTO 06003KT 7000 // BKN140/// OVC160/// M02/M03 Q0990
  • 042150Z AUTO 07004KT 6000 // OVC140/// M03/M04 Q0990
  • 042120Z AUTO 09003KT 6000 // OVC180/// M03/M03 Q0990
  • 042050Z AUTO 12003KT 7000 // BKN190/// M01/M02 Q0990

TAF TAF EDTY
Valid from the 04 at 18:00 until the 05 at 03:00 UTC


041700Z 0418/0503 VRB03KT CAVOK
TEMPO 0500/0503 25006KT 2000 -SNRA
PROB30
TEMPO 0500/0503 -FZRA



MET'MAP, your aeronautical weather chart ! - Copyright ORBIFLY December 2007 - Disclaimer

ORBIFLY MET'MAP TEAM :

Programming & Development : Alexandra Zaïnal
Concept & original design : Baudouin d'Aumeries
Assistance for programming : Marc-Olivier Méhu
Technical & hardware support : Manuel Goepfert

Contact : metmap@orbifly.com




SOURCES & CREDITS :

   NOAA